Time;durP1;ratioP1;P1;durP2;ratioP2;P2;SDS_P1;SDS_P2;PMS_P1;PMS_P2;Temp;Humidity;BMP_temperature;BMP_pressure;BME280_temperature;BME280_humidity;BME280_pressure;Samples;Min_cycle;Max_cycle;Signal;HPM_P1;HPM_P2
2022/08/13 00:00:50;;;;;;;;;;;;;;;20.74;100.00;101786.63;5095441;28;19920;-37
2022/08/13 00:03:18;;;;;;;;;;;;;;;20.69;100.00;101781.16;5094925;28;19930;-32
2022/08/13 00:06:08;;;;;;;;;;;;;;;20.66;100.00;101784.69;5095010;28;20395;-36
2022/08/13 00:08:54;;;;;;;;;;;;;;;20.62;100.00;101790.19;5095605;28;19954;-33
2022/08/13 00:14:26;;;;;;;;;;;;;;;20.56;100.00;101785.94;5094978;28;19927;-32
2022/08/13 00:17:04;;;;;;;;;;;;;;;20.54;100.00;101785.44;5095112;28;19920;-37
2022/08/13 00:19:35;;;;;;;;;;;;;;;20.52;100.00;101784.13;5095114;28;19964;-40
2022/08/13 00:22:02;;;;;;;;;;;;;;;20.50;100.00;101786.47;5095176;28;19958;-38
2022/08/13 00:24:50;;;;;;;;;;;;;;;20.48;100.00;101778.31;5093913;28;19927;-34
2022/08/13 00:27:19;;;;;;;;;;;;;;;20.45;100.00;101781.81;5095355;28;19924;-41
2022/08/13 00:29:54;;;;;;;;;;;;;;;20.43;100.00;101783.34;5094900;28;19924;-32
2022/08/13 00:32:29;;;;;;;;;;;;;;;20.41;100.00;101772.34;5094194;28;19968;-33
2022/08/13 00:34:58;;;;;;;;;;;;;;;20.38;100.00;101777.88;5094821;28;20454;-32
2022/08/13 00:37:27;;;;;;;;;;;;;;;20.35;100.00;101779.38;5091275;28;19930;-32
2022/08/13 00:40:01;;;;;;;;;;;;;;;20.30;100.00;101777.56;5094048;28;19920;-33
2022/08/13 00:42:45;;;;;;;;;;;;;;;20.26;100.00;101779.41;5092711;28;19928;-33
2022/08/13 00:45:19;;;;;;;;;;;;;;;20.24;100.00;101780.91;5093901;28;19920;-32
2022/08/13 00:50:35;;;;;;;;;;;;;;;20.17;100.00;101783.47;5094735;28;20113;-34
2022/08/13 00:53:04;;;;;;;;;;;;;;;20.12;100.00;101781.66;5093812;28;20312;-33
2022/08/13 00:55:32;;;;;;;;;;;;;;;20.11;100.00;101784.84;5094541;28;20308;-33
2022/08/13 00:58:00;;;;;;;;;;;;;;;20.06;100.00;101770.84;5094300;28;20340;-44
2022/08/13 01:00:29;;;;;;;;;;;;;;;20.03;100.00;101766.69;5093743;28;20396;-38
2022/08/13 01:02:59;;;;;;;;;;;;;;;20.00;100.00;101766.53;5094310;28;19985;-33
2022/08/13 01:05:44;;;;;;;;;;;;;;;19.97;100.00;101761.59;5094548;28;19955;-32
2022/08/13 01:08:16;;;;;;;;;;;;;;;19.93;100.00;101765.09;5093263;28;19973;-31
2022/08/13 01:10:45;;;;;;;;;;;;;;;19.91;100.00;101760.94;5094314;28;19920;-40
2022/08/13 01:13:26;;;;;;;;;;;;;;;19.88;100.00;101765.28;5093500;28;19924;-43
2022/08/13 01:16:00;;;;;;;;;;;;;;;19.84;100.00;101761.47;5094351;28;19927;-32
2022/08/13 01:18:28;;;;;;;;;;;;;;;19.82;100.00;101762.97;5093789;28;19924;-32
2022/08/13 01:21:02;;;;;;;;;;;;;;;19.78;100.00;101767.69;5093272;28;20438;-33
2022/08/13 01:23:39;;;;;;;;;;;;;;;19.74;100.00;101761.03;5093900;28;20014;-32
2022/08/13 01:26:10;;;;;;;;;;;;;;;19.71;100.00;101762.53;5094002;28;20389;-32
2022/08/13 01:28:39;;;;;;;;;;;;;;;19.68;100.00;101759.53;5092884;28;20351;-32
2022/08/13 01:31:10;;;;;;;;;;;;;;;19.64;100.00;101762.22;5094182;28;19920;-38
2022/08/13 01:33:46;;;;;;;;;;;;;;;19.60;100.00;101764.06;5093708;28;19923;-32
2022/08/13 01:36:17;;;;;;;;;;;;;;;19.57;100.00;101771.25;5093253;28;20007;-38
2022/08/13 01:39:06;;;;;;;;;;;;;;;19.52;100.00;101771.41;5093675;28;20374;-34
2022/08/13 01:41:46;;;;;;;;;;;;;;;19.48;100.00;101766.72;5093040;28;19935;-37
2022/08/13 01:44:22;;;;;;;;;;;;;;;19.44;100.00;101760.91;5093486;28;19932;-34
2022/08/13 01:52:33;;;;;;;;;;;;;;;19.33;100.00;101759.63;5093298;28;19920;-30
2022/08/13 01:55:04;;;;;;;;;;;;;;;19.30;100.00;101762.28;5093562;28;19924;-36
2022/08/13 01:57:36;;;;;;;;;;;;;;;19.26;100.00;101759.28;5092775;28;20385;-32
2022/08/13 02:00:13;;;;;;;;;;;;;;;19.23;100.00;101757.13;5089876;28;19920;-33
2022/08/13 02:02:54;;;;;;;;;;;;;;;19.20;100.00;101757.78;5092696;28;19985;-32
2022/08/13 02:05:23;;;;;;;;;;;;;;;19.15;100.00;101758.81;5089834;28;19927;-43
2022/08/13 02:08:12;;;;;;;;;;;;;;;19.11;100.00;101760.66;5093121;28;20426;-32
2022/08/13 02:10:46;;;;;;;;;;;;;;;19.08;100.00;101766.97;5092410;28;19920;-40
2022/08/13 02:13:17;;;;;;;;;;;;;;;19.04;100.00;101765.16;5092876;28;19974;-33
2022/08/13 02:15:45;;;;;;;;;;;;;;;19.00;100.00;101766.97;5093265;28;20389;-32
2022/08/13 02:18:18;;;;;;;;;;;;;;;18.96;100.00;101766.00;5090631;28;19926;-40
2022/08/13 02:20:47;;;;;;;;;;;;;;;18.91;100.00;101761.34;5092505;28;20139;-35
2022/08/13 02:23:20;;;;;;;;;;;;;;;18.87;100.00;101763.19;5092385;28;19973;-33
2022/08/13 02:26:10;;;;;;;;;;;;;;;18.84;100.00;101766.66;5088073;28;19928;-33
2022/08/13 02:28:39;;;;;;;;;;;;;;;18.80;100.00;101772.16;5091165;28;19920;-35
2022/08/13 02:31:09;;;;;;;;;;;;;;;18.77;100.00;101760.69;5090785;28;20310;-37
2022/08/13 02:33:57;;;;;;;;;;;;;;;18.74;100.00;101764.19;5091010;28;19928;-37
2022/08/13 02:36:25;;;;;;;;;;;;;;;18.71;100.00;101765.69;5091798;28;20011;-37
2022/08/13 02:38:55;;;;;;;;;;;;;;;18.67;100.00;101764.66;5091570;28;19920;-33
2022/08/13 02:41:42;;;;;;;;;;;;;;;18.64;100.00;101765.34;5091879;28;19959;-32
2022/08/13 02:44:20;;;;;;;;;;;;;;;18.59;100.00;101763.50;5092479;28;20033;-41
2022/08/13 02:47:05;;;;;;;;;;;;;;;18.56;100.00;101769.81;5091786;28;20296;-31
2022/08/13 02:49:36;;;;;;;;;;;;;;;18.54;100.00;101768.47;5092209;28;19927;-33
2022/08/13 02:52:14;;;;;;;;;;;;;;;18.51;100.00;101758.66;5091321;28;19955;-35
2022/08/13 02:54:43;;;;;;;;;;;;;;;18.48;100.00;101761.31;5092164;28;19981;-32
2022/08/13 02:57:23;;;;;;;;;;;;;;;18.46;100.00;101761.63;5092784;28;20015;-32
2022/08/13 02:59:51;;;;;;;;;;;;;;;18.41;100.00;101756.13;5092214;28;19920;-36
2022/08/13 03:02:37;;;;;;;;;;;;;;;18.38;100.00;101761.63;5092842;28;20329;-33
2022/08/13 03:05:07;;;;;;;;;;;;;;;18.36;100.00;101761.13;5092222;28;19928;-41
2022/08/13 03:07:41;;;;;;;;;;;;;;;18.34;100.00;101763.44;5091904;28;19973;-38
2022/08/13 03:10:21;;;;;;;;;;;;;;;18.33;100.00;101759.78;5092548;28;20002;-41
2022/08/13 03:13:16;;;;;;;;;;;;;;;18.33;100.00;101753.31;5081171;28;19974;-41
2022/08/13 03:15:52;;;;;;;;;;;;;;;18.31;100.00;101756.47;5092101;28;20030;-36
2022/08/13 03:18:28;;;;;;;;;;;;;;;18.30;100.00;101757.63;5092511;28;20011;-40
2022/08/13 03:21:18;;;;;;;;;;;;;;;18.30;100.00;101762.44;5090938;28;20388;-34
2022/08/13 03:24:07;;;;;;;;;;;;;;;18.30;100.00;101770.91;5092341;28;19924;-36
2022/08/13 03:26:35;;;;;;;;;;;;;;;18.28;100.00;101759.94;5091502;28;19938;-33
2022/08/13 03:29:08;;;;;;;;;;;;;;;18.28;100.00;101762.75;5090105;28;20328;-33
2022/08/13 03:31:36;;;;;;;;;;;;;;;18.26;100.00;101770.72;5092964;28;19943;-32
2022/08/13 03:34:21;;;;;;;;;;;;;;;18.23;100.00;101769.41;5092469;28;20453;-33
2022/08/13 03:36:51;;;;;;;;;;;;;;;18.20;100.00;101769.22;5093817;28;19926;-34
2022/08/13 03:39:19;;;;;;;;;;;;;;;18.16;100.00;101760.59;5094803;28;19920;-30
2022/08/13 03:41:49;;;;;;;;;;;;;;;18.15;100.00;101763.75;5093519;28;19924;-40
2022/08/13 03:44:20;;;;;;;;;;;;;;;18.15;100.00;101769.41;5095178;28;19970;-34
2022/08/13 03:46:55;;;;;;;;;;;;;;;18.14;100.00;101762.06;5095625;28;19958;-37
2022/08/13 03:49:24;;;;;;;;;;;;;;;18.15;100.00;101764.56;5095456;28;20003;-38
2022/08/13 03:51:56;;;;;;;;;;;;;;;18.14;100.00;101762.91;5095638;28;20381;-32
2022/08/13 03:54:26;;;;;;;;;;;;;;;18.16;100.00;101762.59;5084845;28;19924;-32
2022/08/13 03:56:53;;;;;;;;;;;;;;;18.15;100.00;101756.09;5094808;28;19920;-40
2022/08/13 03:59:31;;;;;;;;;;;;;;;18.15;100.00;101758.09;5095591;28;19920;-36
2022/08/13 04:02:16;;;;;;;;;;;;;;;18.11;100.00;101755.09;5094776;28;19920;-32
2022/08/13 04:04:46;;;;;;;;;;;;;;;18.12;100.00;101753.94;5084429;28;19920;-32
2022/08/13 04:07:16;;;;;;;;;;;;;;;18.13;100.00;101754.75;5095095;28;20034;-39
2022/08/13 04:09:45;;;;;;;;;;;;;;;18.12;100.00;101756.75;5094229;28;19931;-38
2022/08/13 04:12:22;;;;;;;;;;;;;;;18.08;100.00;101761.38;5095169;28;19955;-39
2022/08/13 04:14:52;;;;;;;;;;;;;;;18.04;100.00;101757.56;5094935;28;20301;-34
2022/08/13 04:17:29;;;;;;;;;;;;;;;18.02;100.00;101759.88;5094261;28;20380;-34
2022/08/13 04:20:01;;;;;;;;;;;;;;;17.99;100.00;101751.22;5095019;28;20071;-33
2022/08/13 04:22:29;;;;;;;;;;;;;;;17.95;100.00;101755.88;5094724;28;19931;-39
2022/08/13 04:24:58;;;;;;;;;;;;;;;17.94;100.00;101763.50;5094476;28;20288;-33
2022/08/13 04:27:27;;;;;;;;;;;;;;;17.92;100.00;101762.16;5095432;28;19920;-33
2022/08/13 04:29:59;;;;;;;;;;;;;;;17.89;100.00;101755.19;5094733;28;19920;-32
2022/08/13 04:32:31;;;;;;;;;;;;;;;17.87;100.00;101763.16;5094565;28;19920;-32
2022/08/13 04:35:19;;;;;;;;;;;;;;;17.83;100.00;101757.31;5095086;28;19920;-34
2022/08/13 04:37:58;;;;;;;;;;;;;;;17.80;100.00;101759.94;5094271;28;19924;-36
2022/08/13 04:40:27;;;;;;;;;;;;;;;17.78;100.00;101757.47;5094920;28;19951;-39
2022/08/13 04:42:57;;;;;;;;;;;;;;;17.75;100.00;101758.13;5094253;28;19927;-32
2022/08/13 04:45:27;;;;;;;;;;;;;;;17.73;100.00;101760.44;5093432;28;19927;-32
2022/08/13 04:47:59;;;;;;;;;;;;;;;17.71;100.00;101757.13;5095953;28;20307;-39
2022/08/13 04:50:29;;;;;;;;;;;;;;;17.69;100.00;101756.59;5094443;28;19966;-33
2022/08/13 04:52:57;;;;;;;;;;;;;;;17.68;100.00;101759.75;5094286;28;19920;-32
2022/08/13 04:55:26;;;;;;;;;;;;;;;17.66;100.00;101759.22;5094250;28;20301;-42
2022/08/13 04:58:13;;;;;;;;;;;;;;;17.64;100.00;101764.34;5094983;28;19931;-34
2022/08/13 05:00:45;;;;;;;;;;;;;;;17.63;100.00;101763.50;5093444;28;19928;-32
2022/08/13 05:03:20;;;;;;;;;;;;;;;17.66;100.00;101764.88;5094744;28;19920;-34
2022/08/13 05:05:59;;;;;;;;;;;;;;;17.72;100.00;101766.41;5093284;28;19989;-40
2022/08/13 05:08:32;;;;;;;;;;;;;;;17.76;100.00;101761.78;5094566;28;19927;-32
2022/08/13 05:11:01;;;;;;;;;;;;;;;17.81;100.00;101755.97;5094098;28;20440;-34
2022/08/13 05:13:30;;;;;;;;;;;;;;;17.86;100.00;101762.31;5093681;28;20019;-30
2022/08/13 05:16:12;;;;;;;;;;;;;;;17.90;100.00;101766.16;5094075;28;20346;-34
2022/08/13 05:18:42;;;;;;;;;;;;;;;17.94;100.00;101762.69;5094067;28;19920;-32
2022/08/13 05:21:11;;;;;;;;;;;;;;;17.99;100.00;101765.34;5093393;28;19993;-38
2022/08/13 05:23:44;;;;;;;;;;;;;;;18.04;100.00;101768.84;5074167;28;19966;-37
2022/08/13 05:26:32;;;;;;;;;;;;;;;18.09;100.00;101768.72;5091299;28;19919;-32
2022/08/13 05:29:19;;;;;;;;;;;;;;;18.17;100.00;101772.72;5093954;28;19945;-35
2022/08/13 05:31:51;;;;;;;;;;;;;;;18.21;100.00;101771.72;5093584;28;20381;-38
2022/08/13 05:34:25;;;;;;;;;;;;;;;18.28;100.00;101773.22;5093328;28;20293;-32
2022/08/13 05:36:54;;;;;;;;;;;;;;;18.32;100.00;101760.94;5093518;28;20010;-32
2022/08/13 05:39:42;;;;;;;;;;;;;;;18.40;100.00;101764.94;5094181;28;19927;-35
2022/08/13 05:42:18;;;;;;;;;;;;;;;18.46;100.00;101764.44;5092835;28;20380;-33
2022/08/13 05:44:51;;;;;;;;;;;;;;;18.52;100.00;101767.97;5093867;28;19920;-43
2022/08/13 05:47:20;;;;;;;;;;;;;;;18.58;100.00;101761.00;5093237;28;19924;-32
2022/08/13 05:49:51;;;;;;;;;;;;;;;18.65;100.00;101764.16;5092896;28;19920;-33
2022/08/13 05:52:24;;;;;;;;;;;;;;;18.73;100.00;101759.69;5092208;28;19920;-33
2022/08/13 05:55:06;;;;;;;;;;;;;;;18.81;100.00;101753.19;5091792;28;20027;-32
2022/08/13 05:57:53;;;;;;;;;;;;;;;18.89;100.00;101769.34;5093352;28;19977;-37
2022/08/13 06:06:14;;;;;;;;;;;;;;;19.15;100.00;101760.81;5091966;28;19920;-35
2022/08/13 06:08:47;;;;;;;;;;;;;;;19.22;100.00;101766.78;5092181;28;19920;-34
2022/08/13 06:11:17;;;;;;;;;;;;;;;19.30;100.00;101765.94;5092709;28;19932;-38
2022/08/13 06:14:04;;;;;;;;;;;;;;;19.38;100.00;101762.28;5081915;28;19927;-32
2022/08/13 06:16:34;;;;;;;;;;;;;;;19.50;100.00;101765.25;5092033;28;19928;-35
2022/08/13 06:19:22;;;;;;;;;;;;;;;19.65;100.00;101771.53;5082749;28;19920;-33
2022/08/13 06:21:57;;;;;;;;;;;;;;;19.78;100.00;101771.34;5077928;28;19920;-36
2022/08/13 06:24:27;;;;;;;;;;;;;;;19.91;100.00;101760.94;5081337;28;19920;-42
2022/08/13 06:26:55;;;;;;;;;;;;;;;20.06;100.00;101766.03;5092693;28;19973;-33
2022/08/13 06:29:25;;;;;;;;;;;;;;;20.22;100.00;101758.59;5092209;28;20288;-43
2022/08/13 06:31:57;;;;;;;;;;;;;;;20.43;100.00;101769.16;5091107;28;19982;-33
2022/08/13 06:34:26;;;;;;;;;;;;;;;20.67;100.00;101763.66;5091463;28;19962;-32
2022/08/13 06:37:03;;;;;;;;;;;;;;;21.05;100.00;101766.31;5090841;28;19931;-38
2022/08/13 06:39:36;;;;;;;;;;;;;;;21.52;98.39;101769.69;5091628;28;19919;-32
2022/08/13 06:42:04;;;;;;;;;;;;;;;22.02;94.38;101770.59;5091461;28;20402;-33
2022/08/13 06:44:35;;;;;;;;;;;;;;;22.50;91.98;101764.06;5089981;28;19965;-40
2022/08/13 06:47:04;;;;;;;;;;;;;;;23.02;88.80;101776.25;5092398;28;20022;-33
2022/08/13 06:49:35;;;;;;;;;;;;;;;23.63;87.43;101778.00;5091635;28;19920;-39
2022/08/13 06:52:22;;;;;;;;;;;;;;;24.38;82.43;101772.19;5091598;28;19927;-38
2022/08/13 06:54:51;;;;;;;;;;;;;;;25.03;76.86;101766.75;5091601;28;19934;-44
2022/08/13 06:57:20;;;;;;;;;;;;;;;25.63;73.30;101772.88;5092377;28;19920;-33
2022/08/13 06:59:49;;;;;;;;;;;;;;;26.23;72.30;101779.66;5091101;28;20280;-35
2022/08/13 07:02:37;;;;;;;;;;;;;;;26.95;68.12;101773.00;5092377;28;19927;-38
2022/08/13 07:05:07;;;;;;;;;;;;;;;27.50;64.13;101776.94;5092213;28;20336;-33
2022/08/13 07:07:37;;;;;;;;;;;;;;;28.00;63.01;101777.44;5096615;28;20296;-33
2022/08/13 07:10:05;;;;;;;;;;;;;;;28.65;62.56;101774.66;5096164;28;19923;-43
2022/08/13 07:12:34;;;;;;;;;;;;;;;29.34;58.94;101774.63;5095351;28;19975;-38
2022/08/13 07:15:03;;;;;;;;;;;;;;;29.94;54.91;101776.00;5095765;28;19943;-34
2022/08/13 07:17:45;;;;;;;;;;;;;;;30.58;53.15;101781.72;5096266;28;19924;-36
2022/08/13 07:20:14;;;;;;;;;;;;;;;31.08;49.93;101774.59;5094909;28;19920;-34
2022/08/13 07:22:51;;;;;;;;;;;;;;;31.63;48.24;101776.78;5074943;28;20332;-33
2022/08/13 07:25:39;;;;;;;;;;;;;;;32.19;43.81;101784.22;5094999;28;19920;-37
2022/08/13 07:28:25;;;;;;;;;;;;;;;32.51;43.45;101783.13;5095650;28;19977;-34
2022/08/13 07:31:14;;;;;;;;;;;;;;;32.93;42.14;101773.19;5092958;28;19946;-33
2022/08/13 07:33:44;;;;;;;;;;;;;;;33.24;42.01;101778.97;5095205;28;19923;-40
2022/08/13 07:36:24;;;;;;;;;;;;;;;33.68;37.70;101778.78;5092694;28;19927;-33
2022/08/13 07:38:52;;;;;;;;;;;;;;;33.90;37.34;101775.59;5096081;28;19920;-32
2022/08/13 07:41:21;;;;;;;;;;;;;;;34.11;38.04;101776.06;5095048;28;19927;-38
2022/08/13 07:43:49;;;;;;;;;;;;;;;34.36;36.83;101772.75;5096107;28;19920;-34
2022/08/13 07:46:38;;;;;;;;;;;;;;;34.68;37.03;101775.03;5095485;28;20008;-36
2022/08/13 07:49:09;;;;;;;;;;;;;;;35.01;34.72;101775.22;5095192;28;19948;-33
2022/08/13 07:51:38;;;;;;;;;;;;;;;35.16;35.21;101777.38;5095318;28;19920;-40
2022/08/13 07:54:09;;;;;;;;;;;;;;;35.33;32.96;101774.56;5095738;28;19920;-35
2022/08/13 07:56:37;;;;;;;;;;;;;;;35.57;34.66;101779.78;5094788;28;19920;-38
2022/08/13 07:59:06;;;;;;;;;;;;;;;35.89;33.20;101778.25;5095386;28;19939;-42
2022/08/13 08:01:36;;;;;;;;;;;;;;;35.91;31.74;101781.50;5093947;28;19934;-40
2022/08/13 08:04:25;;;;;;;;;;;;;;;35.87;32.89;101775.78;5095147;28;19920;-41
2022/08/13 08:07:01;;;;;;;;;;;;;;;36.12;33.08;101780.16;5094592;28;19920;-34
2022/08/13 08:09:31;;;;;;;;;;;;;;;36.49;30.54;101779.59;5094384;28;19923;-35
2022/08/13 08:14:54;;;;;;;;;;;;;;;36.82;30.25;101780.34;5095422;28;19924;-41
2022/08/13 08:17:24;;;;;;;;;;;;;;;37.09;31.10;101785.81;5092644;28;20403;-40
2022/08/13 08:20:18;;;;;;;;;;;;;;;37.25;30.79;101777.03;5095377;28;19924;-37
2022/08/13 08:22:49;;;;;;;;;;;;;;;37.62;30.37;101792.09;5092929;28;19924;-36
2022/08/13 08:25:20;;;;;;;;;;;;;;;37.86;29.88;101790.50;5095020;28;19947;-38
2022/08/13 08:27:49;;;;;;;;;;;;;;;38.05;29.26;101790.72;5094971;28;19920;-35
2022/08/13 08:30:37;;;;;;;;;;;;;;;38.01;28.58;101778.34;5094128;28;19920;-35
2022/08/13 08:33:18;;;;;;;;;;;;;;;38.00;28.85;101782.56;5091254;28;20339;-34
2022/08/13 08:36:06;;;;;;;;;;;;;;;37.96;30.37;101784.78;5094873;28;19920;-40
2022/08/13 08:44:32;;;;;;;;;;;;;;;38.43;26.72;101785.66;5093763;28;19920;-35
2022/08/13 08:47:00;;;;;;;;;;;;;;;38.33;26.24;101789.78;5093812;28;19966;-36
2022/08/13 08:49:35;;;;;;;;;;;;;;;38.08;27.97;101786.88;5094462;28;19920;-39
2022/08/13 08:52:11;;;;;;;;;;;;;;;37.98;27.31;101785.13;5093567;28;20331;-40
2022/08/13 08:54:45;;;;;;;;;;;;;;;38.02;27.20;101788.72;5094559;28;20051;-38
2022/08/13 08:57:14;;;;;;;;;;;;;;;38.15;27.95;101786.66;5093927;28;19924;-34
2022/08/13 08:59:43;;;;;;;;;;;;;;;38.31;27.76;101786.50;5093689;28;19942;-39
2022/08/13 09:02:22;;;;;;;;;;;;;;;38.59;28.45;101791.34;5093302;28;19924;-40
2022/08/13 09:04:54;;;;;;;;;;;;;;;39.02;26.29;101794.81;5093518;28;20321;-40
2022/08/13 09:07:36;;;;;;;;;;;;;;;39.18;26.20;101798.34;5094154;28;19954;-38
2022/08/13 09:10:09;;;;;;;;;;;;;;;39.28;26.66;101785.44;5094492;28;19939;-36
2022/08/13 09:12:42;;;;;;;;;;;;;;;39.37;24.36;101789.72;5093464;28;19920;-34
2022/08/13 09:15:11;;;;;;;;;;;;;;;39.22;26.09;101786.50;5083994;28;19920;-38
2022/08/13 09:17:41;;;;;;;;;;;;;;;39.09;24.75;101783.69;5093982;28;19920;-40
2022/08/13 09:20:12;;;;;;;;;;;;;;;38.78;24.94;101786.47;5093500;28;19974;-37
2022/08/13 09:22:41;;;;;;;;;;;;;;;38.45;25.02;101776.44;5094083;28;19928;-37
2022/08/13 09:25:23;;;;;;;;;;;;;;;38.26;23.78;101782.09;5094244;28;19920;-38
2022/08/13 09:27:51;;;;;;;;;;;;;;;38.27;26.04;101779.97;5093098;28;20731;-33
2022/08/13 09:30:39;;;;;;;;;;;;;;;38.37;25.20;101778.78;5082949;28;19920;-42
2022/08/13 09:33:12;;;;;;;;;;;;;;;38.23;23.78;101773.47;5093150;28;19931;-43
2022/08/13 09:35:42;;;;;;;;;;;;;;;38.06;25.68;101777.78;5093972;28;19962;-36
2022/08/13 09:38:12;;;;;;;;;;;;;;;38.26;25.18;101775.44;5093771;28;19928;-36
2022/08/13 09:40:45;;;;;;;;;;;;;;;38.60;25.70;101775.47;5092952;28;20297;-39
2022/08/13 09:43:37;;;;;;;;;;;;;;;38.95;24.75;101769.63;5093437;28;19920;-37
2022/08/13 09:46:15;;;;;;;;;;;;;;;39.17;22.60;101770.41;5083605;28;20001;-35
2022/08/13 09:48:50;;;;;;;;;;;;;;;39.01;22.01;101767.72;5092677;28;19920;-38
2022/08/13 09:51:20;;;;;;;;;;;;;;;38.90;23.93;101762.28;5082105;28;19946;-37
2022/08/13 09:54:09;;;;;;;;;;;;;;;38.91;22.54;101760.16;5089629;28;20454;-36
2022/08/13 09:56:39;;;;;;;;;;;;;;;39.03;23.54;101765.13;5091146;28;19942;-40
2022/08/13 09:59:08;;;;;;;;;;;;;;;39.31;22.45;101763.22;5091914;28;20388;-33
2022/08/13 10:01:56;;;;;;;;;;;;;;;39.48;21.64;101755.88;5081103;28;19977;-37
2022/08/13 10:04:26;;;;;;;;;;;;;;;39.63;21.85;101752.38;5091757;28;20026;-36
2022/08/13 10:06:58;;;;;;;;;;;;;;;39.62;19.67;101760.31;5092110;28;19923;-43
2022/08/13 10:09:33;;;;;;;;;;;;;;;39.36;22.08;101753.03;5092219;28;19967;-40
2022/08/13 10:12:04;;;;;;;;;;;;;;;39.34;20.87;101749.78;5093305;28;19924;-37
2022/08/13 10:14:48;;;;;;;;;;;;;;;39.37;21.79;101745.91;5093259;28;19958;-38
2022/08/13 10:17:24;;;;;;;;;;;;;;;39.44;21.40;101748.53;5093062;28;19920;-43
2022/08/13 10:20:04;;;;;;;;;;;;;;;39.47;22.00;101744.66;5092896;28;20298;-35
2022/08/13 10:22:32;;;;;;;;;;;;;;;39.67;22.03;101742.16;5090942;28;19943;-41
2022/08/13 10:25:00;;;;;;;;;;;;;;;39.58;21.39;101745.03;5092615;28;19999;-37
2022/08/13 10:27:30;;;;;;;;;;;;;;;39.27;21.64;101734.16;5092942;28;20323;-38
2022/08/13 10:30:18;;;;;;;;;;;;;;;39.32;20.31;101731.91;5091807;28;19924;-35
2022/08/13 10:33:05;;;;;;;;;;;;;;;39.32;20.03;101731.91;5092769;28;19924;-37
2022/08/13 10:35:33;;;;;;;;;;;;;;;39.22;21.90;101728.94;5092704;28;20293;-39
2022/08/13 10:38:14;;;;;;;;;;;;;;;39.34;21.47;101727.22;5092101;28;19924;-37
2022/08/13 10:40:41;;;;;;;;;;;;;;;39.25;20.73;101727.97;5092366;28;20023;-37
2022/08/13 10:43:14;;;;;;;;;;;;;;;39.13;21.79;101723.06;5092072;28;19920;-35
2022/08/13 10:45:49;;;;;;;;;;;;;;;39.19;22.32;101724.03;5092439;28;20440;-35
2022/08/13 10:48:17;;;;;;;;;;;;;;;39.28;21.28;101724.09;5092587;28;19956;-39
2022/08/13 10:50:46;;;;;;;;;;;;;;;39.36;21.58;101724.63;5091765;28;19928;-37
2022/08/13 10:56:10;;;;;;;;;;;;;;;39.70;19.77;101731.63;5092140;28;19927;-39
2022/08/13 10:58:40;;;;;;;;;;;;;;;39.52;20.69;101721.50;5092005;28;19919;-36
2022/08/13 11:01:23;;;;;;;;;;;;;;;39.40;20.81;101721.53;5092416;28;20327;-35
2022/08/13 11:03:52;;;;;;;;;;;;;;;39.35;21.03;101722.19;5092692;28;20355;-38
2022/08/13 11:06:32;;;;;;;;;;;;;;;39.42;21.31;101718.97;5091853;28;20269;-36
2022/08/13 11:09:01;;;;;;;;;;;;;;;39.42;21.36;101716.03;5092637;28;20385;-34
2022/08/13 11:11:49;;;;;;;;;;;;;;;39.25;20.70;101713.38;5091326;28;19920;-38
2022/08/13 11:14:21;;;;;;;;;;;;;;;39.30;20.24;101714.88;5092332;28;19949;-38
2022/08/13 11:16:57;;;;;;;;;;;;;;;39.20;19.61;101713.97;5092140;28;19924;-36
2022/08/13 11:19:34;;;;;;;;;;;;;;;39.01;20.03;101720.19;5091595;28;19928;-36
2022/08/13 11:22:19;;;;;;;;;;;;;;;38.89;20.17;101721.88;5092201;28;19957;-38
2022/08/13 11:24:54;;;;;;;;;;;;;;;38.72;19.90;101714.63;5092396;28;20284;-34
2022/08/13 11:27:22;;;;;;;;;;;;;;;38.75;21.34;101707.84;5091180;28;19924;-35
2022/08/13 11:29:58;;;;;;;;;;;;;;;38.84;21.13;101702.06;5092466;28;19927;-35
2022/08/13 11:32:26;;;;;;;;;;;;;;;38.87;20.35;101709.88;5091265;28;19931;-41
2022/08/13 11:34:54;;;;;;;;;;;;;;;38.85;21.08;101704.50;5092250;28;20044;-35
2022/08/13 11:37:22;;;;;;;;;;;;;;;38.85;20.91;101706.59;5092024;28;20365;-42
2022/08/13 11:39:49;;;;;;;;;;;;;;;38.73;20.33;101710.41;5091288;28;19920;-38
2022/08/13 11:42:37;;;;;;;;;;;;;;;38.47;20.91;101693.00;5091809;28;20467;-40
2022/08/13 11:45:06;;;;;;;;;;;;;;;38.38;21.95;101692.91;5080918;28;19926;-37
2022/08/13 11:47:38;;;;;;;;;;;;;;;38.24;19.61;101699.28;5091273;28;20227;-34
2022/08/13 11:50:12;;;;;;;;;;;;;;;38.18;20.55;101693.22;5091888;28;20009;-36
2022/08/13 11:52:57;;;;;;;;;;;;;;;38.32;21.98;101691.91;5095737;28;19920;-36
2022/08/13 11:55:25;;;;;;;;;;;;;;;38.45;20.86;101689.75;5084247;28;20365;-33
2022/08/13 11:57:59;;;;;;;;;;;;;;;38.53;20.57;101673.63;5095765;28;19975;-40
2022/08/13 12:00:29;;;;;;;;;;;;;;;38.30;20.27;101682.00;5094934;28;19920;-37
2022/08/13 12:03:00;;;;;;;;;;;;;;;38.19;21.54;101677.34;5096041;28;19927;-40
2022/08/13 12:05:28;;;;;;;;;;;;;;;38.21;21.68;101668.13;5095648;28;20423;-36
2022/08/13 12:07:58;;;;;;;;;;;;;;;38.18;22.74;101669.91;5095036;28;19920;-35
2022/08/13 12:10:27;;;;;;;;;;;;;;;38.28;22.62;101676.63;5095469;28;19950;-38
2022/08/13 12:13:15;;;;;;;;;;;;;;;38.48;23.19;101671.28;5095217;28;19928;-39
2022/08/13 12:15:49;;;;;;;;;;;;;;;38.63;22.27;101670.78;5094690;28;20113;-35
2022/08/13 12:18:36;;;;;;;;;;;;;;;38.65;22.07;101680.69;5095347;28;19935;-40
2022/08/13 12:21:05;;;;;;;;;;;;;;;38.67;23.05;101669.38;5095190;28;20377;-32
2022/08/13 12:23:42;;;;;;;;;;;;;;;38.60;21.85;101661.69;5094567;28;19928;-40
2022/08/13 12:26:28;;;;;;;;;;;;;;;38.45;23.41;101659.75;5084212;28;19923;-34
2022/08/13 12:28:57;;;;;;;;;;;;;;;38.36;23.46;101662.63;5094203;28;19943;-39
2022/08/13 12:31:26;;;;;;;;;;;;;;;38.20;21.94;101660.69;5094997;28;19975;-42
2022/08/13 12:34:00;;;;;;;;;;;;;;;38.08;22.96;101659.41;5094809;28;19924;-34
2022/08/13 12:36:28;;;;;;;;;;;;;;;37.99;23.47;101655.59;5094108;28;19928;-36
2022/08/13 12:38:55;;;;;;;;;;;;;;;37.82;22.59;101646.19;5095080;28;19920;-34
2022/08/13 12:41:27;;;;;;;;;;;;;;;37.68;24.20;101647.50;5094587;28;20043;-34
2022/08/13 12:44:13;;;;;;;;;;;;;;;37.69;24.46;101649.16;5094014;28;19971;-34
2022/08/13 12:47:02;;;;;;;;;;;;;;;37.66;24.36;101649.25;5093899;28;19929;-36
2022/08/13 12:49:30;;;;;;;;;;;;;;;37.73;21.39;101652.75;5094347;28;20339;-41
2022/08/13 12:52:18;;;;;;;;;;;;;;;37.81;20.23;101641.66;5083571;28;19927;-37
2022/08/13 12:54:58;;;;;;;;;;;;;;;37.44;19.51;101649.16;5094437;28;19926;-37
2022/08/13 12:57:42;;;;;;;;;;;;;;;37.09;21.36;101637.38;5084578;28;19963;-42
2022/08/13 13:00:30;;;;;;;;;;;;;;;36.89;21.54;101640.50;5094398;28;19970;-35
2022/08/13 13:03:00;;;;;;;;;;;;;;;36.73;22.61;101631.84;5094391;28;19920;-38
2022/08/13 13:05:33;;;;;;;;;;;;;;;36.59;22.55;101630.13;5093561;28;20022;-36
2022/08/13 13:08:14;;;;;;;;;;;;;;;36.59;22.04;101615.59;5094415;28;20385;-36
2022/08/13 13:10:57;;;;;;;;;;;;;;;36.53;22.25;101626.19;5093452;28;19924;-36
2022/08/13 13:13:26;;;;;;;;;;;;;;;36.19;22.34;101620.09;5094240;28;19997;-35
2022/08/13 13:16:14;;;;;;;;;;;;;;;36.16;23.58;101623.94;5093808;28;20377;-31
2022/08/13 13:19:03;;;;;;;;;;;;;;;36.43;24.91;101623.59;5093668;28;19923;-32
2022/08/13 13:21:40;;;;;;;;;;;;;;;36.46;22.16;101620.56;5093736;28;19920;-31
2022/08/13 13:24:08;;;;;;;;;;;;;;;36.51;22.71;101613.38;5093049;28;19926;-35
2022/08/13 13:26:49;;;;;;;;;;;;;;;36.52;22.55;101621.66;5091655;28;20027;-36
2022/08/13 13:29:29;;;;;;;;;;;;;;;36.44;24.52;101619.41;5089141;28;19956;-35
2022/08/13 13:32:03;;;;;;;;;;;;;;;36.49;26.01;101608.03;5089254;28;19924;-32
2022/08/13 13:34:52;;;;;;;;;;;;;;;36.67;26.31;101604.56;5092612;28;19920;-34
2022/08/13 13:37:21;;;;;;;;;;;;;;;36.74;23.75;101606.50;5092558;28;19926;-32
2022/08/13 13:39:49;;;;;;;;;;;;;;;36.60;25.42;101596.06;5091095;28;19920;-34